Sunday, April 22, 2018, 5:58 PM EDT
Back to Local

KISP, Islip Long Island Mac Art

Location: Ronkonkoma, NY, United States Lat: 40.8
Local Time: 5:58 PM EDT (21:58 GMT) Lon: -73.1
Time Zone: US/Eastern Elev: 98 ft

Show me the last for .
Show Coded

Time T Td Feel RH Dir Speed Gust Alt SLP Vis Weather Sky Remarks
2018-04-22 16:56 56 27 - 32 170° 15 - 30.34 30.34 10 FEW250 None
2018-04-22 15:56 58 27 - 30 190° 15 - 30.34 30.34 10 FEW250 None
2018-04-22 14:56 58 28 - 31 Variable 6 - 30.35 30.35 10 FEW250 None
2018-04-22 13:56 62 14 - 15 350° 14 23 30.36 30.36 10 SCT250 6-hr Min Temp (2pm): 48.9°F
6-hr Max Temp (2pm): 62.1°F
2018-04-22 12:56 61 15 - 16 350° 14 - 30.37 30.37 10 SCT250 None
2018-04-22 11:56 59 16 - 18 300° 10 - 30.39 30.40 10 FEW250 None
2018-04-22 10:56 57 13 - 17 320° 8 - 30.41 30.41 10 FEW250 None
2018-04-22 09:56 55 20 - 25 350° 9 - 30.40 30.40 10 FEW250 None
2018-04-22 08:56 52 22 - 30 340° 12 - 30.40 30.40 10 FEW250 None
2018-04-22 07:56 49 25 45 38 340° 8 - 30.40 30.40 10 FEW250 6-hr Min Temp (8am): 36.0°F
6-hr Max Temp (8am): 48.9°F
2018-04-22 06:56 41 28 - 59 - Calm - 30.39 30.39 10 CLR None
2018-04-22 05:56 37 26 32 64 330° 7 - 30.37 30.37 10 CLR None
2018-04-22 04:56 39 25 34 56 330° 7 - 30.36 30.36 10 CLR None
2018-04-22 03:56 43 24 37 46 350° 10 - 30.36 30.35 10 CLR None
2018-04-22 02:56 42 27 37 54 340° 8 - 30.35 30.35 10 CLR None
2018-04-22 01:56 40 29 34 64 340° 8 - 30.34 30.34 10 CLR 6-hr Min Temp (2am): 39.0°F
6-hr Max Temp (2am): 46.9°F
2018-04-22 00:56 42 32 37 67 350° 9 - 30.34 30.34 10 CLR 24-hr Min Temp (1am): 34.0°F
24-hr Max Temp (1am): 61.0°F
2018-04-21 23:56 40 34 - 79 - Calm - 30.34 30.34 10 SCT250 None
2018-04-21 22:56 44 35 - 70 - Calm - 30.33 30.33 10 SCT250 None
2018-04-21 21:56 43 34 40 70 240° 5 - 30.32 30.32 10 BKN250 None
2018-04-21 20:56 45 34 41 65 240° 7 - 30.30 30.30 10 BKN250 None
2018-04-21 19:56 47 34 42 60 220° 12 - 30.29 30.29 10 BKN250 6-hr Min Temp (8pm): 46.9°F
6-hr Max Temp (8pm): 61.0°F
2018-04-21 18:56 49 32 43 51 220° 16 - 30.27 30.27 10 BKN250 Wind Shift: 43 min
2018-04-21 18:03 53 34 - 48 210° 14 - 30.25 - 10 BKN250 Wind Shift: 43 min

Support USWX by starting your Amazon purchase here.